Time;durP1;ratioP1;P1;durP2;ratioP2;P2;SDS_P1;SDS_P2;PMS_P1;PMS_P2;Temp;Humidity;BMP_temperature;BMP_pressure;BME280_temperature;BME280_humidity;BME280_pressure;Samples;Min_cycle;Max_cycle;Signal;HPM_P1;HPM_P2
2023/06/12 00:00:26;;;;;;;9.07;4.30;;;;;;;;;;5061800;28;20024;-74
2023/06/12 00:02:52;;;;;;;9.52;4.53;;;;;;;;;;5061842;28;20039;-75
2023/06/12 00:05:19;;;;;;;8.07;5.07;;;;;;;;;;5061718;28;20021;-75
2023/06/12 00:07:47;;;;;;;7.03;4.32;;;;;;;;;;5062241;28;20228;-75
2023/06/12 00:10:12;;;;;;;12.57;4.40;;;;;;;;;;5058976;28;20039;-74
2023/06/12 00:12:38;;;;;;;8.95;4.38;;;;;;;;;;5062157;28;20028;-76
2023/06/12 00:15:04;;;;;;;10.27;4.25;;;;;;;;;;5062141;28;20075;-75
2023/06/12 00:17:33;;;;;;;7.15;4.18;;;;;;;;;;5060764;28;20051;-74
2023/06/12 00:19:58;;;;;;;8.95;4.60;;;;;;;;;;5061971;28;20087;-74
2023/06/12 00:22:24;;;;;;;9.90;4.32;;;;;;;;;;5061842;28;20029;-76
2023/06/12 00:24:49;;;;;;;6.38;4.28;;;;;;;;;;5060130;28;20213;-75
2023/06/12 00:27:18;;;;;;;8.82;4.68;;;;;;;;;;5060342;28;20021;-74
2023/06/12 00:29:43;;;;;;;5.57;3.70;;;;;;;;;;5060055;28;20025;-74
2023/06/12 00:32:08;;;;;;;11.55;4.45;;;;;;;;;;5060645;28;20044;-74
2023/06/12 00:34:34;;;;;;;8.63;4.28;;;;;;;;;;5061223;28;20017;-76
2023/06/12 00:36:59;;;;;;;7.50;4.25;;;;;;;;;;5061460;28;20348;-75
2023/06/12 00:39:25;;;;;;;10.35;4.40;;;;;;;;;;5061839;28;20013;-75
2023/06/12 00:41:50;;;;;;;8.07;4.50;;;;;;;;;;5061447;28;20336;-75
2023/06/12 00:44:15;;;;;;;10.65;4.20;;;;;;;;;;5061728;28;20031;-75
2023/06/12 00:46:41;;;;;;;5.78;3.60;;;;;;;;;;5061419;28;20412;-75
2023/06/12 00:49:06;;;;;;;7.57;4.00;;;;;;;;;;5061339;28;20025;-74
2023/06/12 00:51:33;;;;;;;9.48;4.60;;;;;;;;;;5059853;28;20043;-76
2023/06/12 00:54:00;;;;;;;7.07;3.60;;;;;;;;;;5057218;28;20436;-74
2023/06/12 00:56:27;;;;;;;7.22;4.22;;;;;;;;;;5053191;28;20436;-75
2023/06/12 00:58:52;;;;;;;7.03;3.40;;;;;;;;;;5059730;28;20083;-75
2023/06/12 01:01:24;;;;;;;7.78;3.97;;;;;;;;;;5059241;28;20190;-75
2023/06/12 01:03:52;;;;;;;8.38;3.88;;;;;;;;;;5059665;28;20028;-75
2023/06/12 01:06:25;;;;;;;5.13;3.30;;;;;;;;;;5059759;28;20438;-75
2023/06/12 01:09:05;;;;;;;8.43;4.18;;;;;;;;;;5059806;28;20781;-74
2023/06/12 01:11:32;;;;;;;8.25;3.70;;;;;;;;;;5059464;28;20048;-75
2023/06/12 01:13:58;;;;;;;8.50;3.90;;;;;;;;;;5060066;28;20033;-74
2023/06/12 01:16:23;;;;;;;12.45;4.40;;;;;;;;;;5059693;28;20208;-74
2023/06/12 01:18:50;;;;;;;8.10;3.85;;;;;;;;;;5059286;28;20033;-74
2023/06/12 01:21:21;;;;;;;7.82;4.35;;;;;;;;;;5058944;28;20335;-75
2023/06/12 01:24:00;;;;;;;7.85;4.80;;;;;;;;;;5059734;28;20037;-75
2023/06/12 01:26:48;;;;;;;6.95;4.72;;;;;;;;;;5060226;28;20084;-74
2023/06/12 01:29:49;;;;;;;7.45;4.20;;;;;;;;;;5060916;28;20024;-74
2023/06/12 01:32:16;;;;;;;8.02;3.28;;;;;;;;;;5060549;28;20033;-75
2023/06/12 01:35:05;;;;;;;6.88;3.10;;;;;;;;;;5060793;28;20047;-75
2023/06/12 01:37:44;;;;;;;5.53;2.80;;;;;;;;;;5060628;28;20048;-75
2023/06/12 01:40:12;;;;;;;8.75;3.08;;;;;;;;;;5059478;28;20021;-75
2023/06/12 01:42:38;;;;;;;5.53;3.10;;;;;;;;;;5059824;28;20020;-75
2023/06/12 01:45:04;;;;;;;7.35;3.13;;;;;;;;;;5059358;28;20466;-74
2023/06/12 01:47:30;;;;;;;7.32;2.90;;;;;;;;;;5059059;28;20029;-75
2023/06/12 01:49:56;;;;;;;5.63;3.00;;;;;;;;;;5059365;28;20025;-74
2023/06/12 01:52:22;;;;;;;5.20;3.00;;;;;;;;;;5059734;28;20071;-75
2023/06/12 01:54:47;;;;;;;9.35;2.80;;;;;;;;;;5057050;28;20025;-74
2023/06/12 01:57:13;;;;;;;11.00;3.17;;;;;;;;;;5048750;28;20027;-74
2023/06/12 01:59:39;;;;;;;10.15;3.38;;;;;;;;;;5048994;28;20103;-74
2023/06/12 02:02:05;;;;;;;7.72;3.35;;;;;;;;;;5049184;28;20096;-74
2023/06/12 02:04:30;;;;;;;6.50;3.20;;;;;;;;;;5056164;28;20252;-74
2023/06/12 02:06:56;;;;;;;6.32;2.88;;;;;;;;;;5059474;28;20349;-76
2023/06/12 02:09:21;;;;;;;7.82;2.92;;;;;;;;;;5055675;28;20093;-75
2023/06/12 02:11:48;;;;;;;8.77;2.90;;;;;;;;;;5059188;28;20044;-74
2023/06/12 02:14:13;;;;;;;6.93;2.80;;;;;;;;;;5060544;28;20051;-73
2023/06/12 02:16:39;;;;;;;5.30;3.25;;;;;;;;;;5063425;28;20025;-74
2023/06/12 02:19:04;;;;;;;6.13;2.88;;;;;;;;;;5061452;28;20032;-74
2023/06/12 02:21:30;;;;;;;6.50;3.05;;;;;;;;;;5064155;28;20131;-75
2023/06/12 02:23:55;;;;;;;7.20;3.13;;;;;;;;;;5058201;28;20221;-75
2023/06/12 02:26:22;;;;;;;4.32;2.67;;;;;;;;;;5057034;28;20028;-74
2023/06/12 02:29:08;;;;;;;7.75;2.40;;;;;;;;;;5058953;28;20021;-75
2023/06/12 02:31:34;;;;;;;4.43;2.40;;;;;;;;;;5056970;28;20029;-74
2023/06/12 02:33:59;;;;;;;3.88;2.20;;;;;;;;;;5055079;28;20039;-74
2023/06/12 02:36:25;;;;;;;5.03;2.47;;;;;;;;;;5055331;28;20092;-74
2023/06/12 02:38:51;;;;;;;3.40;2.40;;;;;;;;;;5056862;28;20023;-75
2023/06/12 02:41:17;;;;;;;4.53;2.20;;;;;;;;;;5055982;28;20104;-73
2023/06/12 02:43:42;;;;;;;8.25;2.30;;;;;;;;;;5059808;28;20391;-74
2023/06/12 02:46:07;;;;;;;6.18;2.20;;;;;;;;;;5058710;28;20059;-74
2023/06/12 02:48:33;;;;;;;4.22;2.30;;;;;;;;;;5058615;28;20147;-74
2023/06/12 02:50:58;;;;;;;6.88;2.22;;;;;;;;;;5057845;28;20102;-74
2023/06/12 02:53:24;;;;;;;3.85;2.13;;;;;;;;;;5056597;28;20029;-74
2023/06/12 02:55:49;;;;;;;3.88;2.15;;;;;;;;;;5054953;28;20054;-74
2023/06/12 02:58:15;;;;;;;3.83;2.00;;;;;;;;;;5059248;28;20073;-74
2023/06/12 03:00:41;;;;;;;4.57;2.22;;;;;;;;;;5060900;28;20029;-75
2023/06/12 03:03:07;;;;;;;6.90;2.30;;;;;;;;;;5062430;28;20434;-74
2023/06/12 03:05:33;;;;;;;3.63;2.35;;;;;;;;;;5061944;28;20033;-74
2023/06/12 03:07:58;;;;;;;3.58;1.90;;;;;;;;;;5062483;28;20021;-74
2023/06/12 03:10:23;;;;;;;3.53;2.05;;;;;;;;;;5062281;28;20028;-74
2023/06/12 03:12:49;;;;;;;4.75;2.13;;;;;;;;;;5061312;28;20024;-74
2023/06/12 03:15:14;;;;;;;5.68;2.25;;;;;;;;;;5059466;28;20088;-73
2023/06/12 03:17:40;;;;;;;4.47;2.33;;;;;;;;;;5060869;28;20104;-74
2023/06/12 03:20:07;;;;;;;4.97;2.13;;;;;;;;;;5062280;28;20021;-74
2023/06/12 03:22:33;;;;;;;6.43;2.38;;;;;;;;;;5061382;28;20092;-74
2023/06/12 03:24:58;;;;;;;4.70;2.20;;;;;;;;;;5056673;28;20055;-74
2023/06/12 03:27:25;;;;;;;6.07;2.20;;;;;;;;;;5061354;28;20025;-73
2023/06/12 03:29:50;;;;;;;5.45;2.00;;;;;;;;;;5057310;28;20312;-74
2023/06/12 03:32:16;;;;;;;3.65;1.90;;;;;;;;;;5059574;28;20028;-74
2023/06/12 03:34:42;;;;;;;3.78;2.13;;;;;;;;;;5062936;28;20024;-73
2023/06/12 03:37:08;;;;;;;4.85;2.22;;;;;;;;;;5062872;28;20052;-74
2023/06/12 03:39:33;;;;;;;4.80;2.33;;;;;;;;;;5062915;28;20021;-76
2023/06/12 03:41:58;;;;;;;4.80;2.40;;;;;;;;;;5062075;28;20044;-75
2023/06/12 03:44:24;;;;;;;2.85;2.05;;;;;;;;;;5061180;28;20067;-73
2023/06/12 03:46:50;;;;;;;5.38;2.20;;;;;;;;;;5061266;28;20016;-74
2023/06/12 03:49:15;;;;;;;4.75;2.13;;;;;;;;;;5060511;28;20021;-74
2023/06/12 03:51:41;;;;;;;6.18;2.17;;;;;;;;;;5056975;28;20060;-75
2023/06/12 03:54:11;;;;;;;4.40;1.88;;;;;;;;;;5056465;28;20028;-74
2023/06/12 03:56:36;;;;;;;3.78;1.77;;;;;;;;;;5059915;28;20040;-74
2023/06/12 03:59:02;;;;;;;5.07;2.10;;;;;;;;;;5059621;28;20017;-73
2023/06/12 04:01:27;;;;;;;9.25;2.00;;;;;;;;;;5059621;28;20276;-75
2023/06/12 04:03:53;;;;;;;6.13;2.13;;;;;;;;;;5060989;28;20013;-74
2023/06/12 04:06:22;;;;;;;10.85;2.13;;;;;;;;;;5058510;28;20102;-75
2023/06/12 04:08:47;;;;;;;4.45;2.10;;;;;;;;;;5050652;28;20028;-73
2023/06/12 04:11:14;;;;;;;4.18;2.10;;;;;;;;;;5050533;28;20028;-75
2023/06/12 04:13:40;;;;;;;6.95;2.15;;;;;;;;;;5051047;28;20105;-74
2023/06/12 04:16:06;;;;;;;4.85;2.30;;;;;;;;;;5061050;28;20021;-74
2023/06/12 04:18:32;;;;;;;6.85;2.17;;;;;;;;;;5060981;28;20100;-74
2023/06/12 04:21:00;;;;;;;3.17;2.00;;;;;;;;;;5062174;28;20052;-73
2023/06/12 04:23:29;;;;;;;5.65;2.17;;;;;;;;;;5061567;28;20029;-76
2023/06/12 04:26:06;;;;;;;4.40;2.20;;;;;;;;;;5060577;28;20060;-73
2023/06/12 04:28:33;;;;;;;4.20;2.10;;;;;;;;;;5061792;28;20158;-74
2023/06/12 04:30:59;;;;;;;5.70;2.03;;;;;;;;;;5061769;28;20088;-74
2023/06/12 04:33:30;;;;;;;7.28;2.15;;;;;;;;;;5056018;28;20067;-73
2023/06/12 04:35:58;;;;;;;5.47;2.00;;;;;;;;;;5059532;28;20046;-74
2023/06/12 04:38:25;;;;;;;4.72;2.10;;;;;;;;;;5060584;28;20037;-74
2023/06/12 04:40:51;;;;;;;6.47;2.13;;;;;;;;;;5061691;28;20194;-73
2023/06/12 04:43:19;;;;;;;5.85;2.20;;;;;;;;;;5061451;28;20044;-73
2023/06/12 04:45:45;;;;;;;6.15;2.40;;;;;;;;;;5061458;28;20101;-75
2023/06/12 04:48:11;;;;;;;4.03;2.20;;;;;;;;;;5060620;28;20029;-74
2023/06/12 04:50:36;;;;;;;6.90;2.38;;;;;;;;;;5060228;28;20013;-74
2023/06/12 04:53:02;;;;;;;4.82;2.40;;;;;;;;;;5060637;28;20037;-73
2023/06/12 04:55:28;;;;;;;6.15;2.05;;;;;;;;;;5057818;28;20043;-74
2023/06/12 04:57:55;;;;;;;6.40;2.40;;;;;;;;;;5057741;28;20068;-74
2023/06/12 05:00:21;;;;;;;3.70;2.42;;;;;;;;;;5059545;28;20092;-74
2023/06/12 05:02:46;;;;;;;4.97;2.60;;;;;;;;;;5055731;28;20035;-74
2023/06/12 05:05:12;;;;;;;6.10;2.58;;;;;;;;;;5059238;28;20025;-74
2023/06/12 05:07:38;;;;;;;5.35;2.67;;;;;;;;;;5059839;28;20040;-74
2023/06/12 05:10:04;;;;;;;6.45;2.80;;;;;;;;;;5057280;28;20039;-74
2023/06/12 05:12:30;;;;;;;5.43;2.42;;;;;;;;;;5053759;28;20056;-74
2023/06/12 05:14:55;;;;;;;8.68;2.85;;;;;;;;;;5051858;28;20171;-74
2023/06/12 05:17:21;;;;;;;6.15;2.70;;;;;;;;;;5054108;28;20029;-74
2023/06/12 05:19:46;;;;;;;5.90;2.70;;;;;;;;;;5050956;28;20541;-74
2023/06/12 05:22:12;;;;;;;4.95;2.78;;;;;;;;;;5052816;28;20124;-74
2023/06/12 05:24:37;;;;;;;9.68;2.70;;;;;;;;;;5057135;28;20032;-74
2023/06/12 05:27:03;;;;;;;8.23;2.72;;;;;;;;;;5060060;28;20309;-74
2023/06/12 05:29:29;;;;;;;7.20;2.67;;;;;;;;;;5056041;28;20440;-74
2023/06/12 05:31:54;;;;;;;7.50;2.28;;;;;;;;;;5052825;28;20047;-71
2023/06/12 05:34:20;;;;;;;5.15;2.42;;;;;;;;;;5050073;28;20450;-79
2023/06/12 05:36:45;;;;;;;3.35;2.20;;;;;;;;;;5049023;28;20440;-76
2023/06/12 05:39:13;;;;;;;5.57;2.67;;;;;;;;;;5049458;28;20031;-74
2023/06/12 05:41:39;;;;;;;4.60;2.75;;;;;;;;;;5059125;28;20025;-74
2023/06/12 05:44:06;;;;;;;5.82;2.60;;;;;;;;;;5051775;28;20021;-79
2023/06/12 05:46:32;;;;;;;7.05;2.67;;;;;;;;;;5055161;28;20060;-76
2023/06/12 05:48:58;;;;;;;6.25;2.42;;;;;;;;;;5059073;28;20029;-76
2023/06/12 05:51:27;;;;;;;9.68;3.20;;;;;;;;;;5056150;28;20053;-76
2023/06/12 05:53:53;;;;;;;7.07;2.78;;;;;;;;;;5058495;28;20021;-75
2023/06/12 05:56:18;;;;;;;5.45;2.67;;;;;;;;;;5060866;28;20024;-74
2023/06/12 05:58:44;;;;;;;7.03;2.90;;;;;;;;;;5060812;28;20225;-75
2023/06/12 06:01:11;;;;;;;8.10;3.00;;;;;;;;;;5055148;28;20376;-80
2023/06/12 06:03:42;;;;;;;6.30;2.72;;;;;;;;;;5059334;28;20029;-76
2023/06/12 06:06:08;;;;;;;7.05;2.95;;;;;;;;;;5060534;28;20264;-75
2023/06/12 06:08:34;;;;;;;10.07;3.38;;;;;;;;;;5060375;28;20029;-78
2023/06/12 06:11:00;;;;;;;9.98;3.10;;;;;;;;;;5056284;28;20462;-78
2023/06/12 06:13:25;;;;;;;6.82;3.15;;;;;;;;;;5048807;28;20544;-80
2023/06/12 06:15:51;;;;;;;7.47;3.13;;;;;;;;;;5057986;28;20025;-72
2023/06/12 06:18:17;;;;;;;7.25;3.10;;;;;;;;;;5060120;28;20029;-73
2023/06/12 06:20:42;;;;;;;4.60;3.00;;;;;;;;;;5059193;28;20036;-84
2023/06/12 06:23:08;;;;;;;4.70;3.20;;;;;;;;;;5049688;28;20052;-79
2023/06/12 06:25:33;;;;;;;10.02;3.40;;;;;;;;;;5057767;28;20040;-72
2023/06/12 06:27:59;;;;;;;8.10;3.10;;;;;;;;;;5056068;28;20094;-74
2023/06/12 06:30:24;;;;;;;8.38;3.53;;;;;;;;;;5060028;28;20313;-72
2023/06/12 06:32:50;;;;;;;5.40;2.97;;;;;;;;;;5060440;28;20244;-76
2023/06/12 06:35:16;;;;;;;11.27;3.60;;;;;;;;;;5060600;28;20033;-81
2023/06/12 06:37:41;;;;;;;7.95;3.63;;;;;;;;;;5060381;28;20217;-74
2023/06/12 06:40:08;;;;;;;7.03;3.63;;;;;;;;;;5060287;28;20093;-76
2023/06/12 06:42:34;;;;;;;6.72;3.85;;;;;;;;;;5058787;28;20048;-74
2023/06/12 06:45:00;;;;;;;5.47;3.47;;;;;;;;;;5060235;28;20032;-77
2023/06/12 06:47:26;;;;;;;5.57;3.50;;;;;;;;;;5060067;28;20035;-75
2023/06/12 06:49:51;;;;;;;8.40;3.92;;;;;;;;;;5059401;28;20534;-73
2023/06/12 06:52:18;;;;;;;5.28;3.70;;;;;;;;;;5058720;28;20071;-72
2023/06/12 06:54:44;;;;;;;8.95;3.90;;;;;;;;;;5057761;28;20074;-73
2023/06/12 06:57:12;;;;;;;7.13;4.10;;;;;;;;;;5055448;28;20021;-73
2023/06/12 06:59:37;;;;;;;8.18;4.55;;;;;;;;;;5053185;28;20025;-72
2023/06/12 07:02:03;;;;;;;7.82;4.15;;;;;;;;;;5051708;28;20425;-83
2023/06/12 07:04:28;;;;;;;7.90;4.50;;;;;;;;;;5040898;28;20108;-71
2023/06/12 07:06:54;;;;;;;6.28;4.05;;;;;;;;;;5044078;28;20332;-69
2023/06/12 07:09:19;;;;;;;8.20;4.65;;;;;;;;;;5060691;28;20048;-73
2023/06/12 07:11:45;;;;;;;8.27;4.30;;;;;;;;;;5042040;28;20048;-74
2023/06/12 07:14:10;;;;;;;7.90;4.13;;;;;;;;;;5040876;28;20028;-72
2023/06/12 07:16:36;;;;;;;12.45;5.03;;;;;;;;;;5057354;28;20033;-72
2023/06/12 07:19:01;;;;;;;8.63;4.85;;;;;;;;;;5059954;28;20230;-71
2023/06/12 07:21:26;;;;;;;9.05;4.93;;;;;;;;;;5053798;28;20501;-71
2023/06/12 07:23:52;;;;;;;12.60;4.50;;;;;;;;;;5038752;28;20029;-71
2023/06/12 07:26:18;;;;;;;9.65;5.10;;;;;;;;;;5032983;28;20025;-75
2023/06/12 07:28:44;;;;;;;9.88;5.10;;;;;;;;;;5037935;28;20404;-75
2023/06/12 07:31:10;;;;;;;9.75;4.88;;;;;;;;;;5032945;28;20048;-79
2023/06/12 07:33:35;;;;;;;9.05;4.80;;;;;;;;;;5029986;28;20067;-73
2023/06/12 07:36:01;;;;;;;10.52;5.43;;;;;;;;;;5034687;28;20033;-73
2023/06/12 07:38:26;;;;;;;8.30;4.65;;;;;;;;;;5033418;28;20034;-72
2023/06/12 07:40:52;;;;;;;8.73;5.05;;;;;;;;;;5033212;28;20030;-74
2023/06/12 07:43:17;;;;;;;11.57;5.20;;;;;;;;;;5033893;28;20075;-72
2023/06/12 07:45:43;;;;;;;9.00;5.00;;;;;;;;;;5032985;28;20029;-77
2023/06/12 07:48:08;;;;;;;10.88;5.53;;;;;;;;;;5031259;28;20033;-74
2023/06/12 07:50:34;;;;;;;8.38;5.20;;;;;;;;;;5030619;28;20033;-73
2023/06/12 07:53:00;;;;;;;9.32;5.13;;;;;;;;;;5033992;28;20036;-73
2023/06/12 07:55:26;;;;;;;10.60;4.78;;;;;;;;;;5035196;28;20425;-72
2023/06/12 07:57:52;;;;;;;11.75;4.88;;;;;;;;;;5031200;28;20064;-74
2023/06/12 08:00:20;;;;;;;6.85;4.25;;;;;;;;;;5032520;28;20026;-71
2023/06/12 08:02:58;;;;;;;10.98;5.55;;;;;;;;;;5029456;28;20030;-74
2023/06/12 08:05:24;;;;;;;11.60;5.20;;;;;;;;;;5055141;28;20021;-73
2023/06/12 08:07:50;;;;;;;10.50;5.70;;;;;;;;;;5069997;28;20104;-80
2023/06/12 08:10:16;;;;;;;9.82;5.20;;;;;;;;;;5065588;28;20583;-72
2023/06/12 08:12:42;;;;;;;6.45;4.95;;;;;;;;;;5067045;28;20725;-73
2023/06/12 08:15:08;;;;;;;10.30;5.05;;;;;;;;;;5069231;28;20029;-75
2023/06/12 08:17:36;;;;;;;10.48;5.50;;;;;;;;;;5068927;28;20040;-78
2023/06/12 08:20:08;;;;;;;8.27;5.15;;;;;;;;;;5066594;28;20033;-76
2023/06/12 08:22:34;;;;;;;10.75;5.50;;;;;;;;;;5047313;28;20043;-73
2023/06/12 08:25:04;;;;;;;7.35;5.00;;;;;;;;;;5072264;28;20020;-76
2023/06/12 08:27:30;;;;;;;7.13;5.10;;;;;;;;;;5071287;28;20037;-73
2023/06/12 08:29:55;;;;;;;8.75;5.38;;;;;;;;;;5071329;28;20024;-73
2023/06/12 08:32:22;;;;;;;8.27;5.22;;;;;;;;;;5070400;28;20056;-78
2023/06/12 08:34:47;;;;;;;9.18;5.20;;;;;;;;;;5075358;28;20407;-82
2023/06/12 08:37:13;;;;;;;8.52;5.40;;;;;;;;;;5071165;28;20021;-76
2023/06/12 08:39:38;;;;;;;9.13;4.90;;;;;;;;;;5064062;28;20032;-75
2023/06/12 08:42:05;;;;;;;9.10;5.28;;;;;;;;;;5069727;28;20025;-87
2023/06/12 08:44:31;;;;;;;9.60;4.80;;;;;;;;;;5073172;28;20032;-74
2023/06/12 08:47:02;;;;;;;7.47;4.68;;;;;;;;;;5068747;28;20025;-87
2023/06/12 08:49:28;;;;;;;7.30;4.20;;;;;;;;;;5051359;28;20025;-73
2023/06/12 08:51:53;;;;;;;8.13;4.38;;;;;;;;;;5070168;28;20048;-80
2023/06/12 08:54:19;;;;;;;6.63;4.15;;;;;;;;;;5080002;28;20193;-77
2023/06/12 08:56:47;;;;;;;10.82;4.40;;;;;;;;;;5080500;28;20024;-77
2023/06/12 08:59:13;;;;;;;7.40;4.90;;;;;;;;;;5074066;28;20032;-78
2023/06/12 09:01:39;;;;;;;10.90;4.85;;;;;;;;;;5074057;28;20487;-74
2023/06/12 09:04:18;;;;;;;7.25;4.45;;;;;;;;;;5069674;28;20078;-71
2023/06/12 09:06:45;;;;;;;9.52;4.20;;;;;;;;;;5070668;28;20021;-71
2023/06/12 09:09:11;;;;;;;7.25;4.55;;;;;;;;;;5072440;28;20021;-70
2023/06/12 09:11:37;;;;;;;8.77;4.63;;;;;;;;;;5073155;28;20546;-70
2023/06/12 09:14:03;;;;;;;9.23;4.25;;;;;;;;;;5070918;28;20107;-73
2023/06/12 09:16:29;;;;;;;6.75;4.60;;;;;;;;;;5068404;28;20028;-71
2023/06/12 09:18:55;;;;;;;10.30;4.50;;;;;;;;;;5070561;28;20024;-69
2023/06/12 09:21:24;;;;;;;7.95;4.45;;;;;;;;;;5060006;28;20035;-69
2023/06/12 09:23:55;;;;;;;9.20;4.47;;;;;;;;;;5066688;28;20025;-68
2023/06/12 09:26:24;;;;;;;9.75;4.45;;;;;;;;;;5066550;28;20024;-71
2023/06/12 09:28:52;;;;;;;9.30;4.55;;;;;;;;;;5068474;28;20029;-69
2023/06/12 09:31:18;;;;;;;5.70;4.63;;;;;;;;;;5061355;28;20081;-68
2023/06/12 09:33:44;;;;;;;6.72;4.38;;;;;;;;;;5070849;28;20020;-69
2023/06/12 09:36:12;;;;;;;8.35;4.40;;;;;;;;;;5069892;28;20012;-74
2023/06/12 09:38:38;;;;;;;10.70;4.43;;;;;;;;;;5061296;28;20095;-73
2023/06/12 09:41:06;;;;;;;8.73;4.65;;;;;;;;;;5069684;28;20032;-72
2023/06/12 09:43:32;;;;;;;8.88;4.53;;;;;;;;;;5078910;28;20054;-74
2023/06/12 09:46:00;;;;;;;6.43;3.80;;;;;;;;;;5032059;28;20025;-74
2023/06/12 09:48:36;;;;;;;10.40;4.70;;;;;;;;;;5028516;28;20025;-74
2023/06/12 09:51:07;;;;;;;6.78;4.57;;;;;;;;;;5039459;28;20105;-72
2023/06/12 09:53:36;;;;;;;;;;;;;;;;;;5038231;28;20103;-73
2023/06/12 09:56:07;;;;;;;7.45;4.40;;;;;;;;;;5035379;28;19980;-72
2023/06/12 09:58:36;;;;;;;;;;;;;;;;;;5041256;28;20372;-72
2023/06/12 10:01:05;;;;;;;8.73;4.80;;;;;;;;;;5040526;28;20324;-72
2023/06/12 10:03:35;;;;;;;8.13;4.80;;;;;;;;;;5040285;28;20067;-73
2023/06/12 10:06:05;;;;;;;7.05;4.63;;;;;;;;;;5039422;28;20052;-73
2023/06/12 10:08:30;;;;;;;8.93;4.45;;;;;;;;;;5035984;28;20033;-73
2023/06/12 10:10:59;;;;;;;9.05;5.00;;;;;;;;;;5034500;28;20036;-72
2023/06/12 10:13:25;;;;;;;8.68;4.43;;;;;;;;;;5058813;28;20293;-72
2023/06/12 10:15:52;;;;;;;8.02;5.00;;;;;;;;;;5075226;28;20086;-73
2023/06/12 10:18:19;;;;;;;9.13;4.45;;;;;;;;;;5073330;28;20815;-72
2023/06/12 10:20:45;;;;;;;8.05;4.55;;;;;;;;;;5068379;28;20032;-72
2023/06/12 10:23:12;;;;;;;7.13;4.47;;;;;;;;;;5061296;28;20040;-79
2023/06/12 10:25:37;;;;;;;9.05;4.97;;;;;;;;;;5050362;28;20085;-73
2023/06/12 10:28:04;;;;;;;8.07;4.63;;;;;;;;;;5029930;28;20057;-75
2023/06/12 10:30:30;;;;;;;9.40;5.05;;;;;;;;;;5029085;28;20029;-77
2023/06/12 10:33:13;;;;;;;9.65;5.00;;;;;;;;;;5066966;28;20195;-73
2023/06/12 10:35:39;;;;;;;7.07;4.50;;;;;;;;;;5055777;28;20078;-73
2023/06/12 10:38:04;;;;;;;10.00;5.15;;;;;;;;;;5057362;28;20028;-75
2023/06/12 10:40:31;;;;;;;10.35;4.93;;;;;;;;;;5055047;28;20036;-76
2023/06/12 10:43:04;;;;;;;7.07;4.68;;;;;;;;;;5050733;28;20084;-75
2023/06/12 10:45:33;;;;;;;6.65;4.25;;;;;;;;;;5053657;28;20022;-74
2023/06/12 10:48:02;;;;;;;6.75;4.75;;;;;;;;;;5052204;28;20481;-74
2023/06/12 10:50:31;;;;;;;7.93;4.82;;;;;;;;;;5052411;28;20036;-74
2023/06/12 10:53:00;;;;;;;6.55;4.65;;;;;;;;;;5052759;28;20037;-74
2023/06/12 10:55:29;;;;;;;7.88;5.05;;;;;;;;;;5052340;28;20098;-73
2023/06/12 10:58:03;;;;;;;8.88;4.13;;;;;;;;;;5054000;28;20112;-73
2023/06/12 11:00:32;;;;;;;6.82;4.68;;;;;;;;;;5053477;28;20037;-74
2023/06/12 11:03:04;;;;;;;9.38;4.70;;;;;;;;;;5054235;28;20029;-74
2023/06/12 11:05:31;;;;;;;8.43;4.78;;;;;;;;;;5052109;28;20029;-77
2023/06/12 11:08:06;;;;;;;7.88;4.90;;;;;;;;;;5054667;28;20028;-74
2023/06/12 11:10:33;;;;;;;11.10;5.10;;;;;;;;;;5056962;28;20024;-73
2023/06/12 11:12:59;;;;;;;11.50;5.32;;;;;;;;;;5054095;28;20033;-72
2023/06/12 11:15:25;;;;;;;8.93;5.13;;;;;;;;;;5052882;28;20029;-76
2023/06/12 11:17:57;;;;;;;9.30;4.97;;;;;;;;;;5062109;28;20049;-88
2023/06/12 11:20:22;;;;;;;9.57;5.20;;;;;;;;;;5055205;28;20064;-72
2023/06/12 11:22:56;;;;;;;10.27;5.60;;;;;;;;;;5061083;28;20029;-73
2023/06/12 11:25:22;;;;;;;9.00;5.40;;;;;;;;;;5055532;28;20034;-77
2023/06/12 11:27:48;;;;;;;9.95;5.97;;;;;;;;;;5057747;28;20049;-72
2023/06/12 11:30:15;;;;;;;9.32;5.50;;;;;;;;;;5059303;28;20045;-72
2023/06/12 11:32:43;;;;;;;6.65;4.70;;;;;;;;;;5055364;28;20037;-72
2023/06/12 11:35:10;;;;;;;9.40;5.20;;;;;;;;;;5057179;28;20028;-70
2023/06/12 11:37:38;;;;;;;11.20;5.95;;;;;;;;;;5055728;28;20338;-77
2023/06/12 11:40:10;;;;;;;10.50;5.82;;;;;;;;;;5062612;28;20029;-77
2023/06/12 11:42:44;;;;;;;8.02;5.75;;;;;;;;;;5060134;28;20028;-71
2023/06/12 11:45:15;;;;;;;14.35;6.95;;;;;;;;;;5056904;28;20021;-72
2023/06/12 11:47:45;;;;;;;11.38;6.32;;;;;;;;;;5061433;28;20217;-73
2023/06/12 11:50:16;;;;;;;11.60;6.43;;;;;;;;;;5055067;28;20614;-74
2023/06/12 11:52:44;;;;;;;11.38;6.43;;;;;;;;;;5052275;28;20559;-71
2023/06/12 11:55:17;;;;;;;7.13;5.47;;;;;;;;;;5051603;28;20608;-70
2023/06/12 11:57:49;;;;;;;9.98;6.15;;;;;;;;;;5056403;28;20029;-74
2023/06/12 12:00:20;;;;;;;8.90;6.20;;;;;;;;;;5062649;28;20021;-71
2023/06/12 12:02:55;;;;;;;7.60;5.63;;;;;;;;;;5058945;28;20081;-73
2023/06/12 12:05:22;;;;;;;8.88;5.75;;;;;;;;;;5049197;28;20029;-70
2023/06/12 12:07:59;;;;;;;8.57;5.65;;;;;;;;;;5057076;28;20029;-77
2023/06/12 12:10:29;;;;;;;8.38;5.80;;;;;;;;;;5031341;28;20029;-70
2023/06/12 12:12:59;;;;;;;6.60;5.28;;;;;;;;;;5045490;28;20032;-73
2023/06/12 12:15:26;;;;;;;9.55;6.10;;;;;;;;;;5060004;28;20032;-71
2023/06/12 12:17:52;;;;;;;13.25;6.07;;;;;;;;;;5056702;28;20045;-73
2023/06/12 12:20:19;;;;;;;13.77;6.40;;;;;;;;;;5051458;28;20397;-77
2023/06/12 12:22:49;;;;;;;9.20;6.07;;;;;;;;;;5065318;28;20637;-74
2023/06/12 12:25:22;;;;;;;9.98;6.22;;;;;;;;;;5063347;28;20032;-76
2023/06/12 12:27:52;;;;;;;10.23;6.32;;;;;;;;;;5070640;28;20076;-73
2023/06/12 12:30:18;;;;;;;13.55;6.30;;;;;;;;;;5071068;28;20385;-73
2023/06/12 12:32:46;;;;;;;13.27;7.28;;;;;;;;;;5070406;28;20053;-73
2023/06/12 12:35:15;;;;;;;11.60;6.78;;;;;;;;;;5052899;28;20103;-73
2023/06/12 12:37:44;;;;;;;9.85;6.55;;;;;;;;;;5069985;28;20050;-73
2023/06/12 12:40:11;;;;;;;11.90;6.03;;;;;;;;;;5068935;28;20024;-71
2023/06/12 12:42:54;;;;;;;10.40;6.60;;;;;;;;;;5064036;28;20027;-75
2023/06/12 12:45:20;;;;;;;10.63;6.32;;;;;;;;;;5043411;28;20399;-71
2023/06/12 12:47:48;;;;;;;10.50;6.78;;;;;;;;;;5070103;28;20029;-76
2023/06/12 12:50:17;;;;;;;10.73;6.38;;;;;;;;;;5068802;28;20036;-73
2023/06/12 12:52:42;;;;;;;12.85;6.85;;;;;;;;;;5063015;28;20048;-70
2023/06/12 12:55:08;;;;;;;14.95;6.40;;;;;;;;;;5069469;28;20089;-69
2023/06/12 12:57:37;;;;;;;12.85;6.80;;;;;;;;;;5068941;28;20028;-74
2023/06/12 13:00:10;;;;;;;11.65;7.00;;;;;;;;;;5069413;28;20082;-70
2023/06/12 13:02:38;;;;;;;19.23;6.00;;;;;;;;;;5069993;28;20020;-70
2023/06/12 13:05:04;;;;;;;11.43;7.00;;;;;;;;;;5067994;28;20040;-71
2023/06/12 13:07:32;;;;;;;11.02;5.53;;;;;;;;;;5069098;28;20033;-71
2023/06/12 13:10:00;;;;;;;13.48;6.60;;;;;;;;;;5068966;28;20077;-71
2023/06/12 13:12:25;;;;;;;17.63;6.75;;;;;;;;;;5069270;28;20039;-71
2023/06/12 13:14:50;;;;;;;9.77;5.78;;;;;;;;;;5068510;28;20243;-72
2023/06/12 13:17:16;;;;;;;12.05;6.70;;;;;;;;;;5057802;28;20486;-72
2023/06/12 13:19:42;;;;;;;13.32;5.90;;;;;;;;;;5067358;28;20764;-80
2023/06/12 13:22:07;;;;;;;10.02;5.45;;;;;;;;;;5068518;28;20081;-71
2023/06/12 13:24:33;;;;;;;10.93;5.25;;;;;;;;;;5069382;28;20129;-72
2023/06/12 13:26:58;;;;;;;7.65;4.57;;;;;;;;;;5044647;28;20067;-70
2023/06/12 13:29:24;;;;;;;13.13;5.10;;;;;;;;;;5069131;28;20589;-70
2023/06/12 13:31:49;;;;;;;9.45;5.60;;;;;;;;;;5069084;28;20031;-70
2023/06/12 13:34:15;;;;;;;10.77;5.60;;;;;;;;;;5070093;28;20017;-73
2023/06/12 13:36:40;;;;;;;10.40;5.05;;;;;;;;;;5068715;28;20021;-73
2023/06/12 13:39:06;;;;;;;11.27;4.88;;;;;;;;;;5069230;28;20028;-70
2023/06/12 13:41:32;;;;;;;7.30;5.35;;;;;;;;;;5069031;28;20460;-71
2023/06/12 13:43:57;;;;;;;10.38;4.60;;;;;;;;;;5049695;28;20021;-69
2023/06/12 13:46:23;;;;;;;7.35;4.55;;;;;;;;;;5048864;28;20015;-68
2023/06/12 13:48:51;;;;;;;9.05;4.15;;;;;;;;;;5060274;28;20021;-69
2023/06/12 13:51:17;;;;;;;6.93;3.58;;;;;;;;;;5068309;28;20036;-67
2023/06/12 13:53:43;;;;;;;6.45;3.88;;;;;;;;;;5068702;28;20056;-68
2023/06/12 13:56:08;;;;;;;5.88;3.72;;;;;;;;;;5068328;28;20048;-69
2023/06/12 13:58:33;;;;;;;6.72;3.53;;;;;;;;;;5069098;28;20047;-72
2023/06/12 14:00:59;;;;;;;6.03;3.42;;;;;;;;;;5057301;28;20459;-69
2023/06/12 14:03:24;;;;;;;7.03;3.85;;;;;;;;;;5065499;28;20037;-76
2023/06/12 14:05:50;;;;;;;5.30;3.47;;;;;;;;;;5075380;28;20024;-76
2023/06/12 14:08:15;;;;;;;7.97;3.80;;;;;;;;;;5081479;28;20032;-75
2023/06/12 14:10:43;;;;;;;7.00;3.28;;;;;;;;;;5077245;28;20028;-75
2023/06/12 14:13:10;;;;;;;8.73;3.60;;;;;;;;;;5074428;28;20020;-75
2023/06/12 14:15:35;;;;;;;7.28;3.50;;;;;;;;;;5075681;28;20017;-67
2023/06/12 14:18:03;;;;;;;7.75;3.40;;;;;;;;;;5076539;28;20509;-67
2023/06/12 14:20:30;;;;;;;5.97;3.30;;;;;;;;;;5055858;28;20088;-70
2023/06/12 14:22:57;;;;;;;4.38;3.08;;;;;;;;;;5082220;28;20032;-70
2023/06/12 14:25:23;;;;;;;6.72;3.65;;;;;;;;;;5082510;28;20039;-69
2023/06/12 14:27:48;;;;;;;5.90;3.30;;;;;;;;;;5045254;28;20016;-68
2023/06/12 14:30:14;;;;;;;7.93;3.30;;;;;;;;;;5073488;28;20309;-69
2023/06/12 14:32:39;;;;;;;6.93;3.30;;;;;;;;;;5073517;28;20111;-68
2023/06/12 14:35:05;;;;;;;6.18;3.47;;;;;;;;;;5074127;28;20028;-68
2023/06/12 14:37:31;;;;;;;6.45;3.03;;;;;;;;;;5071011;28;20063;-67
2023/06/12 14:39:57;;;;;;;6.10;3.25;;;;;;;;;;5071834;28;20033;-67